sensor_id;sensor_type;location;lat;lon;timestamp;pressure;altitude;pressure_sealevel;temperature;humidity
72118;BME280;59992;47.490;8.736;2023-06-14T00:00:37;95999.59;;;11.84;56.62
72118;BME280;59992;47.490;8.736;2023-06-14T00:03:29;95998.91;;;11.75;56.02
72118;BME280;59992;47.490;8.736;2023-06-14T00:06:21;96002.09;;;11.67;57.13
72118;BME280;59992;47.490;8.736;2023-06-14T00:09:13;96003.30;;;11.58;57.97
72118;BME280;59992;47.490;8.736;2023-06-14T00:12:07;96003.22;;;11.53;58.21
72118;BME280;59992;47.490;8.736;2023-06-14T00:14:58;95996.30;;;11.47;57.40
72118;BME280;59992;47.490;8.736;2023-06-14T00:17:50;95994.19;;;11.40;58.70
72118;BME280;59992;47.490;8.736;2023-06-14T00:20:40;95994.25;;;11.33;57.45
72118;BME280;59992;47.490;8.736;2023-06-14T00:23:31;95997.05;;;11.26;58.70
72118;BME280;59992;47.490;8.736;2023-06-14T00:26:21;95999.70;;;11.20;59.62
72118;BME280;59992;47.490;8.736;2023-06-14T00:29:11;95998.55;;;11.15;59.96
72118;BME280;59992;47.490;8.736;2023-06-14T00:32:02;95992.93;;;11.11;59.33
72118;BME280;59992;47.490;8.736;2023-06-14T00:34:52;95992.86;;;11.07;60.11
72118;BME280;59992;47.490;8.736;2023-06-14T00:37:42;95989.29;;;11.03;58.71
72118;BME280;59992;47.490;8.736;2023-06-14T00:40:32;95987.98;;;11.00;59.30
72118;BME280;59992;47.490;8.736;2023-06-14T00:43:23;95983.36;;;10.94;61.02
72118;BME280;59992;47.490;8.736;2023-06-14T00:46:13;95985.77;;;10.86;61.66
72118;BME280;59992;47.490;8.736;2023-06-14T00:49:04;95984.23;;;10.79;60.84
72118;BME280;59992;47.490;8.736;2023-06-14T00:51:55;95981.19;;;10.73;61.13
72118;BME280;59992;47.490;8.736;2023-06-14T00:54:45;95981.31;;;10.69;61.31
72118;BME280;59992;47.490;8.736;2023-06-14T00:57:35;95981.99;;;10.65;60.95
72118;BME280;59992;47.490;8.736;2023-06-14T01:00:26;95977.97;;;10.61;62.10
72118;BME280;59992;47.490;8.736;2023-06-14T01:03:17;95977.79;;;10.55;62.29
72118;BME280;59992;47.490;8.736;2023-06-14T01:06:18;95976.19;;;10.49;62.25
72118;BME280;59992;47.490;8.736;2023-06-14T01:09:21;95978.95;;;10.42;61.88
72118;BME280;59992;47.490;8.736;2023-06-14T01:12:17;95979.77;;;10.38;63.09
72118;BME280;59992;47.490;8.736;2023-06-14T01:15:12;95982.63;;;10.33;62.12
72118;BME280;59992;47.490;8.736;2023-06-14T01:18:04;95980.55;;;10.26;63.62
72118;BME280;59992;47.490;8.736;2023-06-14T01:20:55;95976.36;;;10.20;63.21
72118;BME280;59992;47.490;8.736;2023-06-14T01:23:45;95978.23;;;10.16;64.37
72118;BME280;59992;47.490;8.736;2023-06-14T01:26:41;95965.15;;;10.05;64.03
72118;BME280;59992;47.490;8.736;2023-06-14T01:29:35;95976.45;;;10.09;62.48
72118;BME280;59992;47.490;8.736;2023-06-14T01:32:26;95978.83;;;10.03;64.15
72118;BME280;59992;47.490;8.736;2023-06-14T01:35:16;95974.79;;;10.00;64.29
72118;BME280;59992;47.490;8.736;2023-06-14T01:38:07;95979.16;;;9.96;64.79
72118;BME280;59992;47.490;8.736;2023-06-14T01:40:59;95977.46;;;9.92;64.84
72118;BME280;59992;47.490;8.736;2023-06-14T01:43:51;95973.88;;;9.87;65.10
72118;BME280;59992;47.490;8.736;2023-06-14T01:46:43;95970.84;;;9.84;64.81
72118;BME280;59992;47.490;8.736;2023-06-14T01:49:35;95965.10;;;9.74;65.76
72118;BME280;59992;47.490;8.736;2023-06-14T01:52:26;95974.17;;;9.73;64.53
72118;BME280;59992;47.490;8.736;2023-06-14T01:55:17;95979.57;;;9.66;65.89
72118;BME280;59992;47.490;8.736;2023-06-14T01:58:08;95977.19;;;9.61;66.24
72118;BME280;59992;47.490;8.736;2023-06-14T02:00:58;95973.17;;;9.59;66.15
72118;BME280;59992;47.490;8.736;2023-06-14T02:03:49;95972.84;;;9.56;66.08
72118;BME280;59992;47.490;8.736;2023-06-14T02:06:40;95970.52;;;9.51;66.32
72118;BME280;59992;47.490;8.736;2023-06-14T02:09:30;95973.82;;;9.46;66.10
72118;BME280;59992;47.490;8.736;2023-06-14T02:12:20;95974.20;;;9.45;66.57
72118;BME280;59992;47.490;8.736;2023-06-14T02:15:11;95970.48;;;9.42;66.50
72118;BME280;59992;47.490;8.736;2023-06-14T02:18:06;95974.83;;;9.40;67.31
72118;BME280;59992;47.490;8.736;2023-06-14T02:20:57;95977.08;;;9.37;66.87
72118;BME280;59992;47.490;8.736;2023-06-14T02:23:47;95983.67;;;9.31;67.58
72118;BME280;59992;47.490;8.736;2023-06-14T02:26:37;95984.33;;;9.26;67.16
72118;BME280;59992;47.490;8.736;2023-06-14T02:29:28;95982.41;;;9.25;66.75
72118;BME280;59992;47.490;8.736;2023-06-14T02:32:18;95984.71;;;9.20;68.16
72118;BME280;59992;47.490;8.736;2023-06-14T02:35:09;95969.29;;;9.09;69.27
72118;BME280;59992;47.490;8.736;2023-06-14T02:38:00;95979.05;;;9.11;68.70
72118;BME280;59992;47.490;8.736;2023-06-14T02:40:50;95981.35;;;9.06;68.03
72118;BME280;59992;47.490;8.736;2023-06-14T02:43:40;95981.42;;;8.98;69.21
72118;BME280;59992;47.490;8.736;2023-06-14T02:46:31;95979.28;;;8.95;68.98
72118;BME280;59992;47.490;8.736;2023-06-14T02:49:21;95979.81;;;8.89;69.59
72118;BME280;59992;47.490;8.736;2023-06-14T02:52:12;95986.67;;;8.85;69.92
72118;BME280;59992;47.490;8.736;2023-06-14T02:55:02;95986.52;;;8.86;68.84
72118;BME280;59992;47.490;8.736;2023-06-14T02:57:52;95993.13;;;8.83;70.28
72118;BME280;59992;47.490;8.736;2023-06-14T03:00:42;95989.70;;;8.82;69.87
72118;BME280;59992;47.490;8.736;2023-06-14T03:03:32;95994.02;;;8.76;70.78
72118;BME280;59992;47.490;8.736;2023-06-14T03:06:22;95993.17;;;8.73;69.85
72118;BME280;59992;47.490;8.736;2023-06-14T03:09:13;95999.09;;;8.69;70.67
72118;BME280;59992;47.490;8.736;2023-06-14T03:12:04;95996.86;;;8.66;71.47
72118;BME280;59992;47.490;8.736;2023-06-14T03:14:55;95995.41;;;8.64;70.53
72118;BME280;59992;47.490;8.736;2023-06-14T03:17:46;95999.68;;;8.62;70.58
72118;BME280;59992;47.490;8.736;2023-06-14T03:20:37;96002.47;;;8.60;71.05
72118;BME280;59992;47.490;8.736;2023-06-14T03:23:27;96005.26;;;8.59;71.60
72118;BME280;59992;47.490;8.736;2023-06-14T03:26:18;96007.90;;;8.60;71.09
72118;BME280;59992;47.490;8.736;2023-06-14T03:29:08;96007.96;;;8.60;70.02
72118;BME280;59992;47.490;8.736;2023-06-14T03:32:02;96013.23;;;8.58;70.81
72118;BME280;59992;47.490;8.736;2023-06-14T03:34:53;96013.56;;;8.54;71.17
72118;BME280;59992;47.490;8.736;2023-06-14T03:37:44;96015.38;;;8.54;71.46
72118;BME280;59992;47.490;8.736;2023-06-14T03:40:35;96020.66;;;8.55;71.54
72118;BME280;59992;47.490;8.736;2023-06-14T03:43:25;96025.54;;;8.53;71.29
72118;BME280;59992;47.490;8.736;2023-06-14T03:46:15;96026.58;;;8.52;71.28
72118;BME280;59992;47.490;8.736;2023-06-14T03:49:05;96031.91;;;8.55;71.15
72118;BME280;59992;47.490;8.736;2023-06-14T03:51:56;96033.89;;;8.57;72.17
72118;BME280;59992;47.490;8.736;2023-06-14T03:54:46;96035.58;;;8.58;71.21
72118;BME280;59992;47.490;8.736;2023-06-14T03:57:37;96040.12;;;8.59;71.06
72118;BME280;59992;47.490;8.736;2023-06-14T04:00:27;96043.31;;;8.61;71.53
72118;BME280;59992;47.490;8.736;2023-06-14T04:03:17;96044.06;;;8.67;70.86
72118;BME280;59992;47.490;8.736;2023-06-14T04:06:08;96048.08;;;8.75;70.58
72118;BME280;59992;47.490;8.736;2023-06-14T04:09:01;96048.55;;;9.04;70.41
72118;BME280;59992;47.490;8.736;2023-06-14T04:11:52;96056.55;;;9.69;67.84
72118;BME280;59992;47.490;8.736;2023-06-14T04:14:42;96053.58;;;10.26;66.18
72118;BME280;59992;47.490;8.736;2023-06-14T04:17:32;96061.76;;;11.17;63.74
72118;BME280;59992;47.490;8.736;2023-06-14T04:20:23;96060.40;;;12.19;61.34
72118;BME280;59992;47.490;8.736;2023-06-14T04:23:15;96068.04;;;13.26;58.00
72118;BME280;59992;47.490;8.736;2023-06-14T04:26:07;96072.00;;;14.20;55.74
72118;BME280;59992;47.490;8.736;2023-06-14T04:28:59;96067.08;;;15.09;52.36
72118;BME280;59992;47.490;8.736;2023-06-14T04:31:50;96073.35;;;15.96;51.31
72118;BME280;59992;47.490;8.736;2023-06-14T04:34:40;96074.55;;;16.88;52.84
72118;BME280;59992;47.490;8.736;2023-06-14T04:37:31;96076.32;;;17.86;47.80
72118;BME280;59992;47.490;8.736;2023-06-14T04:40:24;96080.14;;;18.65;45.53
72118;BME280;59992;47.490;8.736;2023-06-14T04:43:15;96080.79;;;19.35;44.89
72118;BME280;59992;47.490;8.736;2023-06-14T04:46:06;96081.58;;;20.08;43.28
72118;BME280;59992;47.490;8.736;2023-06-14T04:48:59;96079.44;;;20.81;39.81
72118;BME280;59992;47.490;8.736;2023-06-14T04:51:51;96083.84;;;21.33;38.89
72118;BME280;59992;47.490;8.736;2023-06-14T04:54:46;96086.48;;;21.88;37.08
72118;BME280;59992;47.490;8.736;2023-06-14T04:57:37;96088.48;;;22.17;36.60
72118;BME280;59992;47.490;8.736;2023-06-14T05:00:29;96092.43;;;22.64;34.75
72118;BME280;59992;47.490;8.736;2023-06-14T05:03:20;96091.97;;;23.05;35.45
72118;BME280;59992;47.490;8.736;2023-06-14T05:06:11;96096.79;;;23.65;34.90
72118;BME280;59992;47.490;8.736;2023-06-14T05:09:02;96095.52;;;24.54;36.79
72118;BME280;59992;47.490;8.736;2023-06-14T05:11:52;96090.75;;;25.19;32.99
72118;BME280;59992;47.490;8.736;2023-06-14T05:14:42;96094.13;;;25.75;31.13
72118;BME280;59992;47.490;8.736;2023-06-14T05:17:32;96096.69;;;25.90;29.80
72118;BME280;59992;47.490;8.736;2023-06-14T05:20:25;96101.16;;;26.26;30.51
72118;BME280;59992;47.490;8.736;2023-06-14T05:23:18;96102.04;;;26.88;30.48
72118;BME280;59992;47.490;8.736;2023-06-14T05:26:08;96106.59;;;27.55;27.78
72118;BME280;59992;47.490;8.736;2023-06-14T05:28:59;96105.73;;;28.01;27.39
72118;BME280;59992;47.490;8.736;2023-06-14T05:31:50;96105.85;;;28.57;27.73
72118;BME280;59992;47.490;8.736;2023-06-14T05:34:40;96105.25;;;29.04;27.08
72118;BME280;59992;47.490;8.736;2023-06-14T05:37:30;96100.91;;;29.38;23.95
72118;BME280;59992;47.490;8.736;2023-06-14T05:40:20;96099.80;;;29.60;23.05
72118;BME280;59992;47.490;8.736;2023-06-14T05:43:11;96105.92;;;29.79;24.36
72118;BME280;59992;47.490;8.736;2023-06-14T05:46:01;96108.98;;;30.05;23.24
72118;BME280;59992;47.490;8.736;2023-06-14T05:48:51;96111.58;;;30.38;23.62
72118;BME280;59992;47.490;8.736;2023-06-14T05:51:41;96113.19;;;30.64;21.88
72118;BME280;59992;47.490;8.736;2023-06-14T05:54:32;96116.27;;;30.93;22.63
72118;BME280;59992;47.490;8.736;2023-06-14T05:57:22;96119.95;;;31.15;21.09
72118;BME280;59992;47.490;8.736;2023-06-14T06:00:14;96120.45;;;31.22;21.43
72118;BME280;59992;47.490;8.736;2023-06-14T06:03:05;96123.48;;;31.22;21.34
72118;BME280;59992;47.490;8.736;2023-06-14T06:05:57;96122.39;;;31.15;20.72
72118;BME280;59992;47.490;8.736;2023-06-14T06:08:47;96122.91;;;31.00;20.67
72118;BME280;59992;47.490;8.736;2023-06-14T06:11:37;96125.00;;;31.01;21.31
72118;BME280;59992;47.490;8.736;2023-06-14T06:14:28;96128.16;;;31.23;22.60
72118;BME280;59992;47.490;8.736;2023-06-14T06:17:18;96126.02;;;31.71;21.24
72118;BME280;59992;47.490;8.736;2023-06-14T06:20:10;96131.16;;;31.89;19.98
72118;BME280;59992;47.490;8.736;2023-06-14T06:23:00;96129.05;;;31.93;20.15
72118;BME280;59992;47.490;8.736;2023-06-14T06:25:50;96133.86;;;32.03;20.18
72118;BME280;59992;47.490;8.736;2023-06-14T06:28:41;96137.70;;;32.02;19.11
72118;BME280;59992;47.490;8.736;2023-06-14T06:31:31;96133.83;;;32.01;19.74
72118;BME280;59992;47.490;8.736;2023-06-14T06:34:21;96139.09;;;32.14;20.06
72118;BME280;59992;47.490;8.736;2023-06-14T06:37:12;96137.20;;;32.09;19.72
72118;BME280;59992;47.490;8.736;2023-06-14T06:40:03;96138.05;;;32.15;19.45
72118;BME280;59992;47.490;8.736;2023-06-14T06:42:54;96141.32;;;32.26;19.49
72118;BME280;59992;47.490;8.736;2023-06-14T06:45:45;96145.27;;;32.20;19.40
72118;BME280;59992;47.490;8.736;2023-06-14T06:48:35;96139.79;;;32.05;19.53
72118;BME280;59992;47.490;8.736;2023-06-14T06:51:25;96144.20;;;32.00;19.87
72118;BME280;59992;47.490;8.736;2023-06-14T06:54:15;96140.77;;;31.92;19.20
72118;BME280;59992;47.490;8.736;2023-06-14T06:57:06;96144.90;;;31.52;19.84
72118;BME280;59992;47.490;8.736;2023-06-14T06:59:56;96145.44;;;31.46;19.49
72118;BME280;59992;47.490;8.736;2023-06-14T07:02:47;96145.81;;;31.19;19.91
72118;BME280;59992;47.490;8.736;2023-06-14T07:05:37;96141.61;;;31.06;20.31
72118;BME280;59992;47.490;8.736;2023-06-14T07:08:27;96149.41;;;31.08;20.17
72118;BME280;59992;47.490;8.736;2023-06-14T07:11:17;96144.45;;;30.93;20.43
72118;BME280;59992;47.490;8.736;2023-06-14T07:14:08;96150.19;;;30.73;20.60
72118;BME280;59992;47.490;8.736;2023-06-14T07:16:58;96145.85;;;30.40;21.60
72118;BME280;59992;47.490;8.736;2023-06-14T07:19:48;96144.70;;;30.26;21.87
72118;BME280;59992;47.490;8.736;2023-06-14T07:22:39;96146.17;;;30.50;21.87
72118;BME280;59992;47.490;8.736;2023-06-14T07:25:30;96149.20;;;30.50;21.91
72118;BME280;59992;47.490;8.736;2023-06-14T07:28:20;96152.33;;;30.82;21.89
72118;BME280;59992;47.490;8.736;2023-06-14T07:31:11;96157.79;;;30.93;21.16
72118;BME280;59992;47.490;8.736;2023-06-14T07:34:02;96155.10;;;31.05;20.73
72118;BME280;59992;47.490;8.736;2023-06-14T07:36:52;96157.42;;;30.98;21.03
72118;BME280;59992;47.490;8.736;2023-06-14T07:39:43;96153.95;;;30.94;20.21
72118;BME280;59992;47.490;8.736;2023-06-14T07:42:33;96153.91;;;30.91;20.44
72118;BME280;59992;47.490;8.736;2023-06-14T07:45:23;96159.44;;;30.51;20.66
72118;BME280;59992;47.490;8.736;2023-06-14T07:48:13;96159.14;;;30.36;20.76
72118;BME280;59992;47.490;8.736;2023-06-14T07:51:04;96160.79;;;30.02;20.84
72118;BME280;59992;47.490;8.736;2023-06-14T07:53:54;96162.96;;;30.07;20.83
72118;BME280;59992;47.490;8.736;2023-06-14T07:56:45;96157.05;;;29.91;20.57
72118;BME280;59992;47.490;8.736;2023-06-14T07:59:34;96154.25;;;29.40;21.53
72118;BME280;59992;47.490;8.736;2023-06-14T08:02:25;96153.53;;;29.56;21.76
72118;BME280;59992;47.490;8.736;2023-06-14T08:05:15;96155.63;;;29.63;21.60
72118;BME280;59992;47.490;8.736;2023-06-14T08:08:05;96143.50;;;29.83;20.79
72118;BME280;59992;47.490;8.736;2023-06-14T08:10:56;96145.85;;;29.78;20.39
72118;BME280;59992;47.490;8.736;2023-06-14T08:13:46;96150.99;;;29.80;20.80
72118;BME280;59992;47.490;8.736;2023-06-14T08:16:36;96149.21;;;29.76;21.28
72118;BME280;59992;47.490;8.736;2023-06-14T08:19:26;96150.79;;;29.77;20.97
72118;BME280;59992;47.490;8.736;2023-06-14T08:22:17;96153.11;;;29.71;20.49
72118;BME280;59992;47.490;8.736;2023-06-14T08:25:08;96154.70;;;29.72;20.07
72118;BME280;59992;47.490;8.736;2023-06-14T08:28:00;96156.56;;;29.57;20.28
72118;BME280;59992;47.490;8.736;2023-06-14T08:30:50;96153.64;;;29.59;20.10
72118;BME280;59992;47.490;8.736;2023-06-14T08:33:40;96155.23;;;29.53;20.23
72118;BME280;59992;47.490;8.736;2023-06-14T08:36:32;96165.78;;;29.46;19.87
72118;BME280;59992;47.490;8.736;2023-06-14T08:39:22;96159.29;;;29.25;20.15
72118;BME280;59992;47.490;8.736;2023-06-14T08:42:12;96167.25;;;29.19;19.92
72118;BME280;59992;47.490;8.736;2023-06-14T08:45:08;96169.10;;;28.98;19.86
72118;BME280;59992;47.490;8.736;2023-06-14T08:47:59;96160.50;;;28.98;20.03
72118;BME280;59992;47.490;8.736;2023-06-14T08:50:51;96168.23;;;28.83;19.71
72118;BME280;59992;47.490;8.736;2023-06-14T08:53:57;96171.70;;;28.69;19.66
72118;BME280;59992;47.490;8.736;2023-06-14T08:56:48;96165.64;;;28.37;20.19
72118;BME280;59992;47.490;8.736;2023-06-14T08:59:48;96164.33;;;28.34;20.62
72118;BME280;59992;47.490;8.736;2023-06-14T09:02:41;96169.28;;;28.48;20.28
72118;BME280;59992;47.490;8.736;2023-06-14T09:05:32;96167.97;;;28.37;19.96
72118;BME280;59992;47.490;8.736;2023-06-14T09:08:22;96165.97;;;28.34;20.61
72118;BME280;59992;47.490;8.736;2023-06-14T09:11:14;96162.20;;;28.55;20.18
72118;BME280;59992;47.490;8.736;2023-06-14T09:14:05;96163.30;;;28.27;20.21
72118;BME280;59992;47.490;8.736;2023-06-14T09:16:55;96166.58;;;28.38;20.08
72118;BME280;59992;47.490;8.736;2023-06-14T09:19:46;96163.22;;;28.22;19.34
72118;BME280;59992;47.490;8.736;2023-06-14T09:22:36;96159.77;;;28.24;19.60
72118;BME280;59992;47.490;8.736;2023-06-14T09:25:27;96160.17;;;28.25;19.56
72118;BME280;59992;47.490;8.736;2023-06-14T09:28:17;96161.86;;;28.21;19.63
72118;BME280;59992;47.490;8.736;2023-06-14T09:31:09;96162.02;;;27.97;19.94
72118;BME280;59992;47.490;8.736;2023-06-14T09:34:03;96161.63;;;27.86;20.19
72118;BME280;59992;47.490;8.736;2023-06-14T09:36:53;96160.44;;;27.75;20.47
72118;BME280;59992;47.490;8.736;2023-06-14T09:39:51;96153.46;;;27.70;20.71
72118;BME280;59992;47.490;8.736;2023-06-14T09:42:41;96159.10;;;27.57;20.91
72118;BME280;59992;47.490;8.736;2023-06-14T09:45:34;96166.86;;;27.50;20.42
72118;BME280;59992;47.490;8.736;2023-06-14T09:48:25;96162.40;;;27.55;20.56
72118;BME280;59992;47.490;8.736;2023-06-14T09:51:16;96163.84;;;27.51;20.58
72118;BME280;59992;47.490;8.736;2023-06-14T09:54:12;96166.80;;;27.46;20.42
72118;BME280;59992;47.490;8.736;2023-06-14T09:57:07;96156.32;;;27.36;20.73
72118;BME280;59992;47.490;8.736;2023-06-14T09:59:58;96156.98;;;26.86;21.04
72118;BME280;59992;47.490;8.736;2023-06-14T10:03:00;96159.70;;;26.60;21.41
72118;BME280;59992;47.490;8.736;2023-06-14T10:05:51;96162.44;;;26.37;21.45
72118;BME280;59992;47.490;8.736;2023-06-14T10:08:42;96154.70;;;26.11;21.79
72118;BME280;59992;47.490;8.736;2023-06-14T10:11:34;96154.24;;;25.89;22.44
72118;BME280;59992;47.490;8.736;2023-06-14T10:14:25;96152.41;;;25.79;22.56
72118;BME280;59992;47.490;8.736;2023-06-14T10:17:22;96155.73;;;25.80;22.33
72118;BME280;59992;47.490;8.736;2023-06-14T10:20:21;96161.00;;;25.62;22.37
72118;BME280;59992;47.490;8.736;2023-06-14T10:23:19;96151.14;;;25.51;22.31
72118;BME280;59992;47.490;8.736;2023-06-14T10:26:19;96140.92;;;25.48;22.63
72118;BME280;59992;47.490;8.736;2023-06-14T10:29:11;96144.64;;;25.46;22.50
72118;BME280;59992;47.490;8.736;2023-06-14T10:32:01;96142.00;;;25.32;22.82
72118;BME280;59992;47.490;8.736;2023-06-14T10:34:57;96139.80;;;25.38;22.88
72118;BME280;59992;47.490;8.736;2023-06-14T10:37:48;96144.48;;;25.49;22.58
72118;BME280;59992;47.490;8.736;2023-06-14T10:41:02;96149.88;;;25.46;22.45
72118;BME280;59992;47.490;8.736;2023-06-14T10:44:14;96133.42;;;25.30;23.10
72118;BME280;59992;47.490;8.736;2023-06-14T10:47:25;96134.09;;;25.36;23.14
72118;BME280;59992;47.490;8.736;2023-06-14T10:50:16;96143.28;;;25.32;23.08
72118;BME280;59992;47.490;8.736;2023-06-14T10:53:24;96144.06;;;25.21;23.37
72118;BME280;59992;47.490;8.736;2023-06-14T10:56:27;96141.31;;;25.11;23.75
72118;BME280;59992;47.490;8.736;2023-06-14T10:59:19;96137.82;;;25.00;23.54
72118;BME280;59992;47.490;8.736;2023-06-14T11:02:27;96135.02;;;24.99;23.51
72118;BME280;59992;47.490;8.736;2023-06-14T11:05:27;96140.59;;;24.90;23.71
72118;BME280;59992;47.490;8.736;2023-06-14T11:08:32;96131.48;;;24.80;24.02
72118;BME280;59992;47.490;8.736;2023-06-14T11:11:32;96129.01;;;24.72;23.92
72118;BME280;59992;47.490;8.736;2023-06-14T11:14:23;96132.09;;;24.71;24.14
72118;BME280;59992;47.490;8.736;2023-06-14T11:17:14;96135.98;;;24.72;23.88
72118;BME280;59992;47.490;8.736;2023-06-14T11:20:12;96135.85;;;24.69;23.92
72118;BME280;59992;47.490;8.736;2023-06-14T11:23:05;96139.00;;;24.65;23.60
72118;BME280;59992;47.490;8.736;2023-06-14T11:25:55;96135.07;;;24.60;23.71
72118;BME280;59992;47.490;8.736;2023-06-14T11:28:45;96127.90;;;24.55;23.98
72118;BME280;59992;47.490;8.736;2023-06-14T11:31:35;96122.58;;;24.50;24.45
72118;BME280;59992;47.490;8.736;2023-06-14T11:34:26;96116.89;;;24.44;25.22
72118;BME280;59992;47.490;8.736;2023-06-14T11:37:17;96121.27;;;24.48;25.13
72118;BME280;59992;47.490;8.736;2023-06-14T11:40:09;96128.95;;;24.51;24.13
72118;BME280;59992;47.490;8.736;2023-06-14T11:43:01;96126.52;;;24.55;24.01
72118;BME280;59992;47.490;8.736;2023-06-14T11:45:54;96116.43;;;24.55;24.20
72118;BME280;59992;47.490;8.736;2023-06-14T11:48:44;96120.30;;;24.57;24.48
72118;BME280;59992;47.490;8.736;2023-06-14T11:51:35;96107.95;;;24.57;24.70
72118;BME280;59992;47.490;8.736;2023-06-14T11:54:26;96096.81;;;24.50;24.24
72118;BME280;59992;47.490;8.736;2023-06-14T11:57:16;96107.72;;;24.60;24.51
72118;BME280;59992;47.490;8.736;2023-06-14T12:00:12;96105.39;;;24.67;24.58
72118;BME280;59992;47.490;8.736;2023-06-14T12:03:04;96108.84;;;24.69;24.55
72118;BME280;59992;47.490;8.736;2023-06-14T12:06:05;96106.30;;;24.71;24.52
72118;BME280;59992;47.490;8.736;2023-06-14T12:08:58;96110.66;;;24.72;24.40
72118;BME280;59992;47.490;8.736;2023-06-14T12:11:51;96106.71;;;24.71;24.15
72118;BME280;59992;47.490;8.736;2023-06-14T12:14:50;96099.76;;;24.67;24.30
72118;BME280;59992;47.490;8.736;2023-06-14T12:17:41;96100.52;;;24.60;24.18
72118;BME280;59992;47.490;8.736;2023-06-14T12:20:32;96099.92;;;24.60;24.27
72118;BME280;59992;47.490;8.736;2023-06-14T12:23:25;96096.24;;;24.61;24.65
72118;BME280;59992;47.490;8.736;2023-06-14T12:26:16;96110.11;;;24.67;24.40
72118;BME280;59992;47.490;8.736;2023-06-14T12:29:07;96114.85;;;24.65;24.02
72118;BME280;59992;47.490;8.736;2023-06-14T12:31:58;96102.20;;;24.58;24.36
72118;BME280;59992;47.490;8.736;2023-06-14T12:35:01;96101.13;;;24.56;24.22
72118;BME280;59992;47.490;8.736;2023-06-14T12:37:58;96104.90;;;24.55;24.01
72118;BME280;59992;47.490;8.736;2023-06-14T12:40:48;96102.94;;;24.53;23.84
72118;BME280;59992;47.490;8.736;2023-06-14T12:43:38;96100.66;;;24.58;24.23
72118;BME280;59992;47.490;8.736;2023-06-14T12:46:28;96100.89;;;24.64;24.00
72118;BME280;59992;47.490;8.736;2023-06-14T12:49:20;96100.80;;;24.64;24.38
72118;BME280;59992;47.490;8.736;2023-06-14T12:52:11;96107.00;;;24.69;24.20
72118;BME280;59992;47.490;8.736;2023-06-14T12:55:01;96105.19;;;24.73;25.10
72118;BME280;59992;47.490;8.736;2023-06-14T12:57:52;96105.71;;;24.80;24.84
72118;BME280;59992;47.490;8.736;2023-06-14T13:00:43;96109.54;;;24.83;24.31
72118;BME280;59992;47.490;8.736;2023-06-14T13:03:33;96116.61;;;24.90;24.22
72118;BME280;59992;47.490;8.736;2023-06-14T13:06:24;96115.33;;;24.93;24.03
72118;BME280;59992;47.490;8.736;2023-06-14T13:09:14;96117.60;;;24.93;24.10
72118;BME280;59992;47.490;8.736;2023-06-14T13:12:05;96099.84;;;24.90;24.52
72118;BME280;59992;47.490;8.736;2023-06-14T13:14:55;96109.58;;;24.93;24.88
72118;BME280;59992;47.490;8.736;2023-06-14T13:17:45;96115.14;;;24.95;24.25
72118;BME280;59992;47.490;8.736;2023-06-14T13:20:37;96114.52;;;24.97;23.89
72118;BME280;59992;47.490;8.736;2023-06-14T13:23:28;96105.20;;;24.99;24.18
72118;BME280;59992;47.490;8.736;2023-06-14T13:26:18;96105.59;;;25.01;25.13
72118;BME280;59992;47.490;8.736;2023-06-14T13:29:09;96107.55;;;25.07;24.56
72118;BME280;59992;47.490;8.736;2023-06-14T13:31:59;96108.15;;;25.09;24.71
72118;BME280;59992;47.490;8.736;2023-06-14T13:34:49;96110.35;;;25.15;24.91
72118;BME280;59992;47.490;8.736;2023-06-14T13:37:40;96108.67;;;25.20;24.02
72118;BME280;59992;47.490;8.736;2023-06-14T13:40:30;96109.93;;;25.21;23.93
72118;BME280;59992;47.490;8.736;2023-06-14T13:43:21;96099.80;;;25.21;23.63
72118;BME280;59992;47.490;8.736;2023-06-14T13:46:12;96103.71;;;25.18;23.67
72118;BME280;59992;47.490;8.736;2023-06-14T13:49:02;96105.83;;;25.21;23.68
72118;BME280;59992;47.490;8.736;2023-06-14T13:51:54;96097.86;;;25.22;23.86
72118;BME280;59992;47.490;8.736;2023-06-14T13:54:44;96096.93;;;25.22;24.65
72118;BME280;59992;47.490;8.736;2023-06-14T13:57:34;96105.23;;;25.22;24.15
72118;BME280;59992;47.490;8.736;2023-06-14T14:00:25;96104.51;;;25.21;24.28
72118;BME280;59992;47.490;8.736;2023-06-14T14:03:15;96102.80;;;25.20;24.09
72118;BME280;59992;47.490;8.736;2023-06-14T14:06:06;96102.14;;;25.22;24.07
72118;BME280;59992;47.490;8.736;2023-06-14T14:08:56;96100.87;;;25.22;23.69
72118;BME280;59992;47.490;8.736;2023-06-14T14:11:47;96101.47;;;25.26;23.63
72118;BME280;59992;47.490;8.736;2023-06-14T14:14:37;96092.27;;;25.27;23.55
72118;BME280;59992;47.490;8.736;2023-06-14T14:17:27;96085.04;;;25.20;23.75
72118;BME280;59992;47.490;8.736;2023-06-14T14:20:17;96088.09;;;25.25;23.56
72118;BME280;59992;47.490;8.736;2023-06-14T14:23:07;96094.10;;;25.22;23.52
72118;BME280;59992;47.490;8.736;2023-06-14T14:25:58;96089.75;;;25.24;23.61
72118;BME280;59992;47.490;8.736;2023-06-14T14:28:49;96091.92;;;25.24;24.13
72118;BME280;59992;47.490;8.736;2023-06-14T14:31:39;96093.95;;;25.27;24.11
72118;BME280;59992;47.490;8.736;2023-06-14T14:34:30;96090.72;;;25.34;24.32
72118;BME280;59992;47.490;8.736;2023-06-14T14:37:20;96092.88;;;25.41;24.22
72118;BME280;59992;47.490;8.736;2023-06-14T14:40:11;96086.67;;;25.45;23.99
72118;BME280;59992;47.490;8.736;2023-06-14T14:43:01;96086.20;;;25.43;24.02
72118;BME280;59992;47.490;8.736;2023-06-14T14:45:51;96087.41;;;25.41;24.09
72118;BME280;59992;47.490;8.736;2023-06-14T14:48:42;96088.30;;;25.37;24.12
72118;BME280;59992;47.490;8.736;2023-06-14T14:51:32;96093.58;;;25.41;24.24
72118;BME280;59992;47.490;8.736;2023-06-14T14:54:22;96094.61;;;25.41;24.25
72118;BME280;59992;47.490;8.736;2023-06-14T14:57:13;96091.71;;;25.37;24.16
72118;BME280;59992;47.490;8.736;2023-06-14T15:00:05;96091.72;;;25.34;24.34
72118;BME280;59992;47.490;8.736;2023-06-14T15:02:55;96090.19;;;25.35;24.31
72118;BME280;59992;47.490;8.736;2023-06-14T15:05:45;96095.46;;;25.37;24.34
72118;BME280;59992;47.490;8.736;2023-06-14T15:08:36;96092.94;;;25.37;24.58
72118;BME280;59992;47.490;8.736;2023-06-14T15:11:26;96090.20;;;25.38;24.66